sensor_id;sensor_type;location;lat;lon;timestamp;pressure;altitude;pressure_sealevel;temperature;humidity
21240;BME280;10778;48.962;9.018;2022-09-27T00:02:24;97339.16;;;9.60;100.00
21240;BME280;10778;48.962;9.018;2022-09-27T00:04:50;97336.97;;;9.63;100.00
21240;BME280;10778;48.962;9.018;2022-09-27T00:07:16;97339.44;;;9.65;100.00
21240;BME280;10778;48.962;9.018;2022-09-27T00:09:42;97331.94;;;9.62;100.00
21240;BME280;10778;48.962;9.018;2022-09-27T00:12:09;97342.59;;;9.60;100.00
21240;BME280;10778;48.962;9.018;2022-09-27T00:14:35;97336.22;;;9.54;100.00
21240;BME280;10778;48.962;9.018;2022-09-27T00:17:01;97331.44;;;9.58;100.00
21240;BME280;10778;48.962;9.018;2022-09-27T00:19:27;97331.09;;;9.61;100.00
21240;BME280;10778;48.962;9.018;2022-09-27T00:21:55;97328.81;;;9.58;100.00
21240;BME280;10778;48.962;9.018;2022-09-27T00:24:21;97330.75;;;9.64;100.00
21240;BME280;10778;48.962;9.018;2022-09-27T00:26:48;97329.47;;;9.60;100.00
21240;BME280;10778;48.962;9.018;2022-09-27T00:29:16;97324.63;;;9.49;100.00
21240;BME280;10778;48.962;9.018;2022-09-27T00:31:43;97325.78;;;9.46;100.00
21240;BME280;10778;48.962;9.018;2022-09-27T00:34:17;97319.56;;;9.47;100.00
21240;BME280;10778;48.962;9.018;2022-09-27T00:36:43;97320.72;;;9.45;100.00
21240;BME280;10778;48.962;9.018;2022-09-27T00:39:10;97320.03;;;9.51;100.00
21240;BME280;10778;48.962;9.018;2022-09-27T00:41:36;97309.19;;;9.54;100.00
21240;BME280;10778;48.962;9.018;2022-09-27T00:44:44;97306.03;;;9.59;100.00
21240;BME280;10778;48.962;9.018;2022-09-27T00:47:12;97307.34;;;9.54;100.00
21240;BME280;10778;48.962;9.018;2022-09-27T00:49:47;97302.44;;;9.51;100.00
21240;BME280;10778;48.962;9.018;2022-09-27T00:52:16;97306.78;;;9.44;100.00
21240;BME280;10778;48.962;9.018;2022-09-27T00:54:48;97312.16;;;9.51;100.00
21240;BME280;10778;48.962;9.018;2022-09-27T00:57:16;97307.44;;;9.46;100.00
21240;BME280;10778;48.962;9.018;2022-09-27T00:59:49;97306.91;;;9.51;100.00
21240;BME280;10778;48.962;9.018;2022-09-27T01:02:17;97306.94;;;9.43;100.00
21240;BME280;10778;48.962;9.018;2022-09-27T01:04:44;97311.69;;;9.47;100.00
21240;BME280;10778;48.962;9.018;2022-09-27T01:07:12;97304.69;;;9.39;100.00
21240;BME280;10778;48.962;9.018;2022-09-27T01:09:39;97303.53;;;9.42;100.00
21240;BME280;10778;48.962;9.018;2022-09-27T01:15:09;97301.88;;;9.41;100.00
21240;BME280;10778;48.962;9.018;2022-09-27T01:17:48;97307.03;;;9.34;100.00
21240;BME280;10778;48.962;9.018;2022-09-27T01:23:27;97309.09;;;9.39;100.00
21240;BME280;10778;48.962;9.018;2022-09-27T01:26:41;97295.47;;;9.44;100.00
21240;BME280;10778;48.962;9.018;2022-09-27T01:29:18;97305.03;;;9.36;100.00
21240;BME280;10778;48.962;9.018;2022-09-27T01:32:07;97306.34;;;9.32;100.00
21240;BME280;10778;48.962;9.018;2022-09-27T01:35:12;97300.78;;;9.35;100.00
21240;BME280;10778;48.962;9.018;2022-09-27T01:40:50;97298.31;;;9.34;100.00
21240;BME280;10778;48.962;9.018;2022-09-27T01:43:40;97299.47;;;9.31;100.00
21240;BME280;10778;48.962;9.018;2022-09-27T01:46:34;97290.59;;;9.32;100.00
21240;BME280;10778;48.962;9.018;2022-09-27T01:49:41;97299.47;;;9.31;100.00
21240;BME280;10778;48.962;9.018;2022-09-27T01:52:14;97298.47;;;9.32;100.00
21240;BME280;10778;48.962;9.018;2022-09-27T01:54:46;97301.28;;;9.31;100.00
21240;BME280;10778;48.962;9.018;2022-09-27T01:57:34;97300.47;;;9.30;100.00
21240;BME280;10778;48.962;9.018;2022-09-27T02:00:07;97300.34;;;9.23;100.00
21240;BME280;10778;48.962;9.018;2022-09-27T02:02:48;97299.38;;;9.24;100.00
21240;BME280;10778;48.962;9.018;2022-09-27T02:05:43;97319.41;;;9.17;100.00
21240;BME280;10778;48.962;9.018;2022-09-27T02:08:37;97321.25;;;9.17;100.00
21240;BME280;10778;48.962;9.018;2022-09-27T02:11:12;97328.78;;;9.11;100.00
21240;BME280;10778;48.962;9.018;2022-09-27T02:13:57;97313.41;;;9.08;100.00
21240;BME280;10778;48.962;9.018;2022-09-27T02:16:53;97328.19;;;9.01;100.00
21240;BME280;10778;48.962;9.018;2022-09-27T02:19:49;97325.78;;;8.91;100.00
21240;BME280;10778;48.962;9.018;2022-09-27T02:25:47;97334.47;;;8.92;100.00
21240;BME280;10778;48.962;9.018;2022-09-27T02:30:55;97332.91;;;8.74;100.00
21240;BME280;10778;48.962;9.018;2022-09-27T02:36:10;97337.50;;;8.72;100.00
21240;BME280;10778;48.962;9.018;2022-09-27T02:38:37;97342.59;;;8.74;100.00
21240;BME280;10778;48.962;9.018;2022-09-27T02:41:10;97345.88;;;8.67;100.00
21240;BME280;10778;48.962;9.018;2022-09-27T02:43:36;97343.28;;;8.59;100.00
21240;BME280;10778;48.962;9.018;2022-09-27T02:46:22;97348.00;;;8.64;100.00
21240;BME280;10778;48.962;9.018;2022-09-27T02:51:56;97350.81;;;8.62;100.00
21240;BME280;10778;48.962;9.018;2022-09-27T03:01:15;97352.44;;;8.55;100.00
21240;BME280;10778;48.962;9.018;2022-09-27T03:04:20;97349.19;;;8.53;100.00
21240;BME280;10778;48.962;9.018;2022-09-27T03:06:49;97356.75;;;8.56;100.00
21240;BME280;10778;48.962;9.018;2022-09-27T03:09:24;97356.22;;;8.61;100.00
21240;BME280;10778;48.962;9.018;2022-09-27T03:11:53;97351.31;;;8.58;100.00
21240;BME280;10778;48.962;9.018;2022-09-27T03:14:20;97344.94;;;8.52;100.00
21240;BME280;10778;48.962;9.018;2022-09-27T03:17:09;97356.91;;;8.54;100.00
21240;BME280;10778;48.962;9.018;2022-09-27T03:19:53;97359.19;;;8.58;100.00
21240;BME280;10778;48.962;9.018;2022-09-27T03:22:37;97363.47;;;8.50;100.00
21240;BME280;10778;48.962;9.018;2022-09-27T03:25:06;97374.91;;;8.58;100.00
21240;BME280;10778;48.962;9.018;2022-09-27T03:27:32;97371.94;;;8.61;100.00
21240;BME280;10778;48.962;9.018;2022-09-27T03:29:59;97374.75;;;8.59;100.00
21240;BME280;10778;48.962;9.018;2022-09-27T03:32:25;97374.56;;;8.61;100.00
21240;BME280;10778;48.962;9.018;2022-09-27T03:35:12;97369.31;;;8.61;100.00
21240;BME280;10778;48.962;9.018;2022-09-27T03:37:39;97368.19;;;8.63;100.00
21240;BME280;10778;48.962;9.018;2022-09-27T03:40:06;97371.28;;;8.67;100.00
21240;BME280;10778;48.962;9.018;2022-09-27T03:42:32;97370.63;;;8.65;100.00
21240;BME280;10778;48.962;9.018;2022-09-27T03:44:59;97374.91;;;8.66;100.00
21240;BME280;10778;48.962;9.018;2022-09-27T03:47:25;97369.47;;;8.67;100.00
21240;BME280;10778;48.962;9.018;2022-09-27T03:49:51;97380.59;;;8.70;100.00
21240;BME280;10778;48.962;9.018;2022-09-27T03:52:18;97381.09;;;8.73;100.00
21240;BME280;10778;48.962;9.018;2022-09-27T03:54:44;97378.97;;;8.68;100.00
21240;BME280;10778;48.962;9.018;2022-09-27T03:57:10;97377.81;;;8.71;100.00
21240;BME280;10778;48.962;9.018;2022-09-27T03:59:37;97376.19;;;8.70;100.00
21240;BME280;10778;48.962;9.018;2022-09-27T04:02:23;97383.22;;;8.70;100.00
21240;BME280;10778;48.962;9.018;2022-09-27T04:05:08;97374.56;;;8.69;100.00
21240;BME280;10778;48.962;9.018;2022-09-27T04:07:34;97380.25;;;8.73;100.00
21240;BME280;10778;48.962;9.018;2022-09-27T04:10:00;97390.44;;;8.67;100.00
21240;BME280;10778;48.962;9.018;2022-09-27T04:12:27;97384.69;;;8.72;100.00
21240;BME280;10778;48.962;9.018;2022-09-27T04:14:54;97381.56;;;8.77;100.00
21240;BME280;10778;48.962;9.018;2022-09-27T04:17:58;97377.16;;;8.69;100.00
21240;BME280;10778;48.962;9.018;2022-09-27T04:20:34;97379.09;;;8.75;100.00
21240;BME280;10778;48.962;9.018;2022-09-27T04:23:07;97383.88;;;8.72;100.00
21240;BME280;10778;48.962;9.018;2022-09-27T04:25:35;97388.59;;;8.76;100.00
21240;BME280;10778;48.962;9.018;2022-09-27T04:28:08;97381.91;;;8.74;100.00
21240;BME280;10778;48.962;9.018;2022-09-27T04:30:34;97386.44;;;8.88;100.00
21240;BME280;10778;48.962;9.018;2022-09-27T04:33:12;97390.88;;;8.79;100.00
21240;BME280;10778;48.962;9.018;2022-09-27T04:35:57;97395.47;;;8.86;100.00
21240;BME280;10778;48.962;9.018;2022-09-27T04:38:59;97400.38;;;8.80;100.00
21240;BME280;10778;48.962;9.018;2022-09-27T04:41:26;97402.16;;;8.88;100.00
21240;BME280;10778;48.962;9.018;2022-09-27T04:43:54;97407.13;;;8.83;100.00
21240;BME280;10778;48.962;9.018;2022-09-27T04:46:21;97405.31;;;8.75;100.00
21240;BME280;10778;48.962;9.018;2022-09-27T04:48:48;97407.44;;;8.80;100.00
21240;BME280;10778;48.962;9.018;2022-09-27T04:51:15;97407.44;;;8.80;100.00
21240;BME280;10778;48.962;9.018;2022-09-27T04:53:45;97407.31;;;8.73;100.00
21240;BME280;10778;48.962;9.018;2022-09-27T04:56:13;97416.66;;;8.76;100.00
21240;BME280;10778;48.962;9.018;2022-09-27T04:58:40;97419.44;;;8.74;100.00
21240;BME280;10778;48.962;9.018;2022-09-27T05:01:07;97428.13;;;8.75;100.00
21240;BME280;10778;48.962;9.018;2022-09-27T05:03:56;97427.44;;;8.81;100.00
21240;BME280;10778;48.962;9.018;2022-09-27T05:06:24;97430.66;;;9.00;100.00
21240;BME280;10778;48.962;9.018;2022-09-27T05:08:50;97437.41;;;8.94;100.00
21240;BME280;10778;48.962;9.018;2022-09-27T05:11:18;97441.66;;;8.95;100.00
21240;BME280;10778;48.962;9.018;2022-09-27T05:14:04;97448.56;;;8.79;100.00
21240;BME280;10778;48.962;9.018;2022-09-27T05:16:37;97448.28;;;8.74;100.00
21240;BME280;10778;48.962;9.018;2022-09-27T05:19:22;97453.16;;;8.77;100.00
21240;BME280;10778;48.962;9.018;2022-09-27T05:22:11;97461.72;;;8.71;100.00
21240;BME280;10778;48.962;9.018;2022-09-27T05:24:37;97459.41;;;8.76;100.00
21240;BME280;10778;48.962;9.018;2022-09-27T05:27:05;97470.56;;;8.62;100.00
21240;BME280;10778;48.962;9.018;2022-09-27T05:29:34;97478.78;;;8.67;100.00
21240;BME280;10778;48.962;9.018;2022-09-27T05:32:06;97478.28;;;8.63;100.00
21240;BME280;10778;48.962;9.018;2022-09-27T05:34:32;97483.84;;;8.60;100.00
21240;BME280;10778;48.962;9.018;2022-09-27T05:36:59;97488.13;;;8.61;100.00
21240;BME280;10778;48.962;9.018;2022-09-27T05:39:26;97495.78;;;8.63;100.00
21240;BME280;10778;48.962;9.018;2022-09-27T05:41:52;97496.81;;;8.53;100.00
21240;BME280;10778;48.962;9.018;2022-09-27T05:44:21;97501.72;;;8.57;100.00
21240;BME280;10778;48.962;9.018;2022-09-27T05:46:56;97497.94;;;8.59;100.00
21240;BME280;10778;48.962;9.018;2022-09-27T05:49:23;97508.91;;;8.54;100.00
21240;BME280;10778;48.962;9.018;2022-09-27T05:51:49;97505.97;;;8.58;100.00
21240;BME280;10778;48.962;9.018;2022-09-27T05:54:15;97508.72;;;8.73;100.00
21240;BME280;10778;48.962;9.018;2022-09-27T05:56:41;97510.22;;;8.59;100.00
21240;BME280;10778;48.962;9.018;2022-09-27T05:59:30;97513.97;;;8.48;100.00
21240;BME280;10778;48.962;9.018;2022-09-27T06:02:19;97508.91;;;8.54;100.00
21240;BME280;10778;48.962;9.018;2022-09-27T06:05:04;97506.31;;;8.54;100.00
21240;BME280;10778;48.962;9.018;2022-09-27T06:07:47;97517.78;;;8.53;100.00
21240;BME280;10778;48.962;9.018;2022-09-27T06:10:23;97516.78;;;8.54;100.00
21240;BME280;10778;48.962;9.018;2022-09-27T06:12:49;97519.41;;;8.54;100.00
21240;BME280;10778;48.962;9.018;2022-09-27T06:19:15;97520.91;;;8.57;100.00
21240;BME280;10778;48.962;9.018;2022-09-27T06:21:41;97535.00;;;8.56;100.00
21240;BME280;10778;48.962;9.018;2022-09-27T06:24:08;97539.25;;;8.57;100.00
21240;BME280;10778;48.962;9.018;2022-09-27T06:26:35;97547.09;;;8.57;100.00
21240;BME280;10778;48.962;9.018;2022-09-27T06:29:23;97539.06;;;8.59;100.00
21240;BME280;10778;48.962;9.018;2022-09-27T06:31:56;97548.06;;;8.64;100.00
21240;BME280;10778;48.962;9.018;2022-09-27T06:34:47;97553.66;;;8.61;100.00
21240;BME280;10778;48.962;9.018;2022-09-27T06:37:13;97559.03;;;8.60;100.00
21240;BME280;10778;48.962;9.018;2022-09-27T06:39:40;97559.03;;;8.60;100.00
21240;BME280;10778;48.962;9.018;2022-09-27T06:42:30;97560.38;;;8.56;100.00
21240;BME280;10778;48.962;9.018;2022-09-27T06:45:08;97565.94;;;8.61;100.00
21240;BME280;10778;48.962;9.018;2022-09-27T06:47:52;97568.06;;;8.57;100.00
21240;BME280;10778;48.962;9.018;2022-09-27T06:50:24;97572.81;;;8.53;100.00
21240;BME280;10778;48.962;9.018;2022-09-27T06:52:50;97580.84;;;8.60;100.00
21240;BME280;10778;48.962;9.018;2022-09-27T06:55:17;97579.03;;;8.61;100.00
21240;BME280;10778;48.962;9.018;2022-09-27T06:57:44;97583.97;;;8.56;100.00
21240;BME280;10778;48.962;9.018;2022-09-27T07:00:29;97589.97;;;8.48;100.00
21240;BME280;10778;48.962;9.018;2022-09-27T07:03:22;97594.91;;;8.43;100.00
21240;BME280;10778;48.962;9.018;2022-09-27T07:09:44;97594.56;;;8.46;100.00
21240;BME280;10778;48.962;9.018;2022-09-27T07:12:11;97600.28;;;8.41;100.00
21240;BME280;10778;48.962;9.018;2022-09-27T07:14:38;97603.09;;;8.39;100.00
21240;BME280;10778;48.962;9.018;2022-09-27T07:17:05;97612.06;;;8.45;100.00
21240;BME280;10778;48.962;9.018;2022-09-27T07:19:40;97611.75;;;8.40;100.00
21240;BME280;10778;48.962;9.018;2022-09-27T07:22:07;97602.91;;;8.41;100.00
21240;BME280;10778;48.962;9.018;2022-09-27T07:24:34;97615.69;;;8.36;100.00
21240;BME280;10778;48.962;9.018;2022-09-27T07:27:01;97618.31;;;8.36;100.00
21240;BME280;10778;48.962;9.018;2022-09-27T07:29:27;97614.00;;;8.26;100.00
21240;BME280;10778;48.962;9.018;2022-09-27T07:31:53;97623.50;;;8.28;100.00
21240;BME280;10778;48.962;9.018;2022-09-27T07:34:19;97621.06;;;8.26;100.00
21240;BME280;10778;48.962;9.018;2022-09-27T07:36:45;97626.50;;;8.33;100.00
21240;BME280;10778;48.962;9.018;2022-09-27T07:39:12;97625.66;;;8.32;100.00
21240;BME280;10778;48.962;9.018;2022-09-27T07:41:42;97631.41;;;8.36;100.00
21240;BME280;10778;48.962;9.018;2022-09-27T07:44:09;97633.50;;;8.32;100.00
21240;BME280;10778;48.962;9.018;2022-09-27T07:46:45;97646.97;;;8.46;100.00
21240;BME280;10778;48.962;9.018;2022-09-27T07:49:21;97635.72;;;8.53;100.00
21240;BME280;10778;48.962;9.018;2022-09-27T07:52:17;97634.09;;;8.52;100.00
21240;BME280;10778;48.962;9.018;2022-09-27T07:55:13;97636.88;;;8.67;100.00
21240;BME280;10778;48.962;9.018;2022-09-27T07:58:15;97646.91;;;8.72;100.00
21240;BME280;10778;48.962;9.018;2022-09-27T08:00:42;97648.53;;;8.98;100.00
21240;BME280;10778;48.962;9.018;2022-09-27T08:03:12;97658.38;;;9.37;100.00
21240;BME280;10778;48.962;9.018;2022-09-27T08:05:46;97647.38;;;9.99;98.40
21240;BME280;10778;48.962;9.018;2022-09-27T08:08:15;97650.34;;;10.67;93.48
21240;BME280;10778;48.962;9.018;2022-09-27T08:10:52;97654.13;;;10.33;95.12
21240;BME280;10778;48.962;9.018;2022-09-27T08:13:19;97654.31;;;10.31;96.71
21240;BME280;10778;48.962;9.018;2022-09-27T08:15:47;97649.97;;;11.17;90.68
21240;BME280;10778;48.962;9.018;2022-09-27T08:18:14;97656.72;;;10.73;91.99
21240;BME280;10778;48.962;9.018;2022-09-27T08:20:58;97665.63;;;9.92;93.48
21240;BME280;10778;48.962;9.018;2022-09-27T08:23:32;97671.72;;;9.92;95.05
21240;BME280;10778;48.962;9.018;2022-09-27T08:26:12;97677.66;;;9.78;93.86
21240;BME280;10778;48.962;9.018;2022-09-27T08:29:07;97689.06;;;9.45;95.57
21240;BME280;10778;48.962;9.018;2022-09-27T08:31:39;97691.31;;;9.40;97.46
21240;BME280;10778;48.962;9.018;2022-09-27T08:34:06;97690.84;;;9.45;97.95
21240;BME280;10778;48.962;9.018;2022-09-27T08:36:32;97692.03;;;9.25;97.55
21240;BME280;10778;48.962;9.018;2022-09-27T08:39:03;97694.16;;;9.22;96.52
21240;BME280;10778;48.962;9.018;2022-09-27T08:41:51;97696.91;;;9.20;97.71
21240;BME280;10778;48.962;9.018;2022-09-27T08:50:31;97699.19;;;9.65;97.25
21240;BME280;10778;48.962;9.018;2022-09-27T08:59:33;97704.97;;;10.17;93.14
21240;BME280;10778;48.962;9.018;2022-09-27T09:02:01;97710.38;;;9.59;98.76
21240;BME280;10778;48.962;9.018;2022-09-27T09:04:35;97709.88;;;9.47;100.00
21240;BME280;10778;48.962;9.018;2022-09-27T09:13:13;97705.94;;;9.26;100.00
21240;BME280;10778;48.962;9.018;2022-09-27T09:16:11;97709.00;;;10.36;100.00
21240;BME280;10778;48.962;9.018;2022-09-27T09:33:13;97695.22;;;11.74;87.11
21240;BME280;10778;48.962;9.018;2022-09-27T09:35:57;97701.56;;;11.64;84.98
21240;BME280;10778;48.962;9.018;2022-09-27T09:38:43;97691.03;;;11.79;83.45
21240;BME280;10778;48.962;9.018;2022-09-27T09:46:32;97692.28;;;10.60;88.29
21240;BME280;10778;48.962;9.018;2022-09-27T09:51:51;97691.63;;;10.27;90.34
21240;BME280;10778;48.962;9.018;2022-09-27T09:57:14;97677.66;;;9.86;94.60
21240;BME280;10778;48.962;9.018;2022-09-27T10:00:00;97672.84;;;10.38;97.42
21240;BME280;10778;48.962;9.018;2022-09-27T10:02:36;97666.38;;;10.80;94.09
21240;BME280;10778;48.962;9.018;2022-09-27T10:05:19;97673.09;;;11.06;90.73
21240;BME280;10778;48.962;9.018;2022-09-27T10:07:49;97667.63;;;11.31;91.63
21240;BME280;10778;48.962;9.018;2022-09-27T10:10:19;97660.22;;;11.12;89.72
21240;BME280;10778;48.962;9.018;2022-09-27T10:13:03;97660.09;;;11.28;89.06
21240;BME280;10778;48.962;9.018;2022-09-27T10:15:33;97663.28;;;11.38;88.36
21240;BME280;10778;48.962;9.018;2022-09-27T10:18:00;97661.09;;;11.42;90.21
21240;BME280;10778;48.962;9.018;2022-09-27T10:20:40;97660.75;;;11.07;89.12
21240;BME280;10778;48.962;9.018;2022-09-27T10:23:17;97671.88;;;10.94;90.25
21240;BME280;10778;48.962;9.018;2022-09-27T10:26:06;97681.59;;;10.70;91.83
21240;BME280;10778;48.962;9.018;2022-09-27T10:28:44;97686.59;;;10.57;87.47
21240;BME280;10778;48.962;9.018;2022-09-27T10:31:19;97692.25;;;10.37;87.26
21240;BME280;10778;48.962;9.018;2022-09-27T10:34:04;97685.59;;;10.09;90.15
21240;BME280;10778;48.962;9.018;2022-09-27T10:36:37;97688.47;;;9.83;94.04
21240;BME280;10778;48.962;9.018;2022-09-27T10:39:05;97682.06;;;9.86;94.04
21240;BME280;10778;48.962;9.018;2022-09-27T10:41:41;97682.22;;;9.84;93.96
21240;BME280;10778;48.962;9.018;2022-09-27T10:44:30;97685.03;;;9.82;93.35
21240;BME280;10778;48.962;9.018;2022-09-27T10:47:19;97687.47;;;9.84;94.15
21240;BME280;10778;48.962;9.018;2022-09-27T10:50:18;97684.59;;;9.62;97.33
21240;BME280;10778;48.962;9.018;2022-09-27T10:53:14;97688.38;;;9.60;99.12
21240;BME280;10778;48.962;9.018;2022-09-27T10:55:47;97688.38;;;9.60;100.00
21240;BME280;10778;48.962;9.018;2022-09-27T10:58:34;97688.72;;;9.48;100.00
21240;BME280;10778;48.962;9.018;2022-09-27T11:01:07;97682.31;;;9.51;100.00
21240;BME280;10778;48.962;9.018;2022-09-27T11:04:06;97681.97;;;9.54;100.00
21240;BME280;10778;48.962;9.018;2022-09-27T11:06:34;97684.28;;;9.41;100.00
21240;BME280;10778;48.962;9.018;2022-09-27T11:09:24;97682.47;;;9.41;100.00
21240;BME280;10778;48.962;9.018;2022-09-27T11:12:06;97681.66;;;9.16;100.00
21240;BME280;10778;48.962;9.018;2022-09-27T11:14:34;97682.97;;;9.11;100.00
21240;BME280;10778;48.962;9.018;2022-09-27T11:20:20;97681.34;;;8.94;100.00
21240;BME280;10778;48.962;9.018;2022-09-27T11:46:40;97694.75;;;7.62;100.00
21240;BME280;10778;48.962;9.018;2022-09-27T11:52:07;97708.03;;;7.42;100.00
21240;BME280;10778;48.962;9.018;2022-09-27T11:55:00;97701.31;;;7.39;100.00
21240;BME280;10778;48.962;9.018;2022-09-27T11:57:38;97708.50;;;7.37;100.00
21240;BME280;10778;48.962;9.018;2022-09-27T12:00:23;97702.72;;;7.34;100.00
21240;BME280;10778;48.962;9.018;2022-09-27T12:08:51;97703.81;;;7.49;100.00
21240;BME280;10778;48.962;9.018;2022-09-27T12:11:39;97696.53;;;7.61;100.00
21240;BME280;10778;48.962;9.018;2022-09-27T12:16:51;97684.78;;;7.92;100.00
21240;BME280;10778;48.962;9.018;2022-09-27T12:19:24;97684.13;;;7.90;100.00
21240;BME280;10778;48.962;9.018;2022-09-27T12:22:09;97682.63;;;7.87;100.00
21240;BME280;10778;48.962;9.018;2022-09-27T12:24:41;97684.91;;;7.82;100.00
21240;BME280;10778;48.962;9.018;2022-09-27T12:27:38;97677.66;;;7.76;100.00
21240;BME280;10778;48.962;9.018;2022-09-27T12:30:12;97665.94;;;7.88;100.00
21240;BME280;10778;48.962;9.018;2022-09-27T12:33:05;97668.41;;;7.90;100.00
21240;BME280;10778;48.962;9.018;2022-09-27T12:35:44;97661.69;;;7.87;100.00
21240;BME280;10778;48.962;9.018;2022-09-27T12:38:18;97652.84;;;7.88;100.00
21240;BME280;10778;48.962;9.018;2022-09-27T12:40:53;97640.47;;;7.99;100.00
21240;BME280;10778;48.962;9.018;2022-09-27T12:43:31;97640.75;;;7.95;100.00
21240;BME280;10778;48.962;9.018;2022-09-27T12:51:51;97656.41;;;7.79;100.00
21240;BME280;10778;48.962;9.018;2022-09-27T13:00:21;97660.06;;;7.33;100.00
21240;BME280;10778;48.962;9.018;2022-09-27T13:06:04;97654.59;;;7.45;100.00
21240;BME280;10778;48.962;9.018;2022-09-27T13:13:53;97648.00;;;8.10;100.00
21240;BME280;10778;48.962;9.018;2022-09-27T13:16:21;97646.56;;;8.16;100.00
21240;BME280;10778;48.962;9.018;2022-09-27T13:18:51;97640.44;;;8.42;100.00
21240;BME280;10778;48.962;9.018;2022-09-27T13:32:33;97647.38;;;8.59;100.00
21240;BME280;10778;48.962;9.018;2022-09-27T13:35:19;97640.84;;;8.88;100.00
21240;BME280;10778;48.962;9.018;2022-09-27T13:37:54;97637.06;;;8.74;100.00
21240;BME280;10778;48.962;9.018;2022-09-27T13:40:39;97644.88;;;8.49;100.00
21240;BME280;10778;48.962;9.018;2022-09-27T13:48:43;97640.34;;;8.68;100.00
21240;BME280;10778;48.962;9.018;2022-09-27T13:59:09;97631.78;;;8.58;100.00
21240;BME280;10778;48.962;9.018;2022-09-27T14:01:47;97623.28;;;8.56;100.00
21240;BME280;10778;48.962;9.018;2022-09-27T14:04:40;97618.66;;;8.49;100.00
21240;BME280;10778;48.962;9.018;2022-09-27T14:07:12;97624.59;;;8.60;100.00
21240;BME280;10778;48.962;9.018;2022-09-27T14:09:43;97621.63;;;8.63;100.00
21240;BME280;10778;48.962;9.018;2022-09-27T14:12:24;97637.06;;;8.66;100.00
21240;BME280;10778;48.962;9.018;2022-09-27T14:14:53;97633.75;;;8.56;100.00
21240;BME280;10778;48.962;9.018;2022-09-27T14:17:21;97626.69;;;8.48;100.00
21240;BME280;10778;48.962;9.018;2022-09-27T14:19:48;97629.28;;;8.39;100.00
21240;BME280;10778;48.962;9.018;2022-09-27T14:22:22;97627.47;;;8.40;100.00
21240;BME280;10778;48.962;9.018;2022-09-27T14:24:55;97624.25;;;8.54;100.00
21240;BME280;10778;48.962;9.018;2022-09-27T14:27:36;97613.44;;;8.58;100.00
21240;BME280;10778;48.962;9.018;2022-09-27T14:30:17;97622.09;;;8.42;100.00
21240;BME280;10778;48.962;9.018;2022-09-27T14:32:53;97614.56;;;8.55;100.00
21240;BME280;10778;48.962;9.018;2022-09-27T14:35:47;97604.59;;;8.50;100.00
21240;BME280;10778;48.962;9.018;2022-09-27T14:38:32;97614.94;;;8.60;100.00
21240;BME280;10778;48.962;9.018;2022-09-27T14:41:03;97618.22;;;8.62;100.00
21240;BME280;10778;48.962;9.018;2022-09-27T14:43:29;97634.41;;;8.58;100.00
21240;BME280;10778;48.962;9.018;2022-09-27T14:46:00;97631.78;;;8.58;100.00
21240;BME280;10778;48.962;9.018;2022-09-27T14:48:35;97630.81;;;8.50;100.00
21240;BME280;10778;48.962;9.018;2022-09-27T14:53:34;97635.38;;;8.48;100.00
21240;BME280;10778;48.962;9.018;2022-09-27T14:56:02;97631.66;;;9.09;100.00
21240;BME280;10778;48.962;9.018;2022-09-27T15:02:20;97613.47;;;9.72;100.00
21240;BME280;10778;48.962;9.018;2022-09-27T15:04:49;97630.34;;;9.30;100.00
21240;BME280;10778;48.962;9.018;2022-09-27T15:07:17;97635.94;;;9.10;100.00
21240;BME280;10778;48.962;9.018;2022-09-27T15:09:44;97635.59;;;8.96;100.00
21240;BME280;10778;48.962;9.018;2022-09-27T15:12:17;97637.41;;;8.88;100.00
21240;BME280;10778;48.962;9.018;2022-09-27T15:14:48;97637.91;;;8.91;100.00
21240;BME280;10778;48.962;9.018;2022-09-27T15:17:20;97637.25;;;9.14;100.00
21240;BME280;10778;48.962;9.018;2022-09-27T15:19:58;97646.53;;;9.58;100.00
21240;BME280;10778;48.962;9.018;2022-09-27T15:22:41;97635.81;;;9.76;100.00
21240;BME280;10778;48.962;9.018;2022-09-27T15:27:58;97632.91;;;9.54;100.00
21240;BME280;10778;48.962;9.018;2022-09-27T15:30:27;97633.41;;;9.50;100.00
21240;BME280;10778;48.962;9.018;2022-09-27T15:32:57;97625.88;;;9.38;100.00
21240;BME280;10778;48.962;9.018;2022-09-27T15:35:30;97632.78;;;9.39;100.00
21240;BME280;10778;48.962;9.018;2022-09-27T15:38:24;97627.53;;;9.31;100.00
21240;BME280;10778;48.962;9.018;2022-09-27T15:43:25;97636.28;;;9.80;100.00
21240;BME280;10778;48.962;9.018;2022-09-27T15:45:56;97630.22;;;9.79;100.00
21240;BME280;10778;48.962;9.018;2022-09-27T15:48:25;97624.78;;;9.81;100.00
21240;BME280;10778;48.962;9.018;2022-09-27T15:50:52;97623.16;;;9.80;100.00
21240;BME280;10778;48.962;9.018;2022-09-27T15:56:04;97624.13;;;9.87;100.00
21240;BME280;10778;48.962;9.018;2022-09-27T15:58:32;97623.28;;;9.87;100.00
21240;BME280;10778;48.962;9.018;2022-09-27T16:01:03;97622.22;;;10.04;100.00
21240;BME280;10778;48.962;9.018;2022-09-27T16:03:31;97625.00;;;10.11;100.00
21240;BME280;10778;48.962;9.018;2022-09-27T16:05:59;97624.63;;;10.22;100.00
21240;BME280;10778;48.962;9.018;2022-09-27T16:08:27;97624.06;;;10.04;100.00
21240;BME280;10778;48.962;9.018;2022-09-27T16:10:55;97627.25;;;10.22;100.00
21240;BME280;10778;48.962;9.018;2022-09-27T16:13:23;97627.63;;;10.11;100.00
21240;BME280;10778;48.962;9.018;2022-09-27T16:15:50;97631.09;;;10.12;100.00
21240;BME280;10778;48.962;9.018;2022-09-27T16:18:16;97635.56;;;10.03;100.00
21240;BME280;10778;48.962;9.018;2022-09-27T16:20:43;97634.94;;;9.92;100.00
21240;BME280;10778;48.962;9.018;2022-09-27T16:23:09;97635.94;;;9.83;100.00
21240;BME280;10778;48.962;9.018;2022-09-27T16:25:35;97637.63;;;9.76;100.00
21240;BME280;10778;48.962;9.018;2022-09-27T16:28:03;97637.47;;;9.69;100.00
21240;BME280;10778;48.962;9.018;2022-09-27T16:30:30;97634.03;;;9.68;100.00
21240;BME280;10778;48.962;9.018;2022-09-27T16:32:58;97644.88;;;9.57;100.00
21240;BME280;10778;48.962;9.018;2022-09-27T16:35:25;97649.31;;;9.57;100.00
21240;BME280;10778;48.962;9.018;2022-09-27T16:37:53;97649.34;;;9.32;100.00